Welcome to La Porte Aviation Services!

An aviation adventure awaits

Current Weather Conditions

Available data for KPPO from the past 2 hours
LA PORTE, IN
Metar
KPPO 160655Z AUTO 22009KT 5SM BR SCT070 BKN085 M16/M18 A3035 RMK AO2 T11571180

06:55 UTC

Wind: 220° 9kt

Visibility: 5 SM

Sky: SCT 7000 ft

Temp: -16 deg C / 3.2 deg F

Dewpoint: -18 deg C / -0.4 deg F

Pressure: 30.35 inHg

Connect with us on Facebook!

Facebook By Weblizar Powered By Weblizar